createdAt,value
2019-06-08T00:01:34.452Z,15.23
2019-06-08T00:04:08.749Z,15.21
2019-06-08T00:06:38.572Z,15.19
2019-06-08T00:09:08.660Z,15.15
2019-06-08T00:11:40.154Z,15.19
2019-06-08T00:14:09.866Z,15.19
2019-06-08T00:16:40.727Z,15.17
2019-06-08T00:19:10.285Z,15.20
2019-06-08T00:21:40.051Z,15.20
2019-06-08T00:24:09.591Z,15.22
2019-06-08T00:26:39.580Z,15.19
2019-06-08T00:29:14.196Z,15.09
2019-06-08T00:31:46.096Z,15.02
2019-06-08T00:34:24.850Z,14.98
2019-06-08T00:36:54.915Z,14.88
2019-06-08T00:39:25.414Z,14.79
2019-06-08T00:41:56.952Z,14.74
2019-06-08T00:44:31.740Z,14.70
2019-06-08T00:47:03.372Z,14.69
2019-06-08T00:49:37.776Z,14.68
2019-06-08T00:52:10.226Z,14.69
2019-06-08T00:54:42.323Z,14.71
2019-06-08T00:57:15.074Z,14.78
2019-06-08T00:59:52.279Z,14.80
2019-06-08T01:02:24.626Z,14.80
2019-06-08T01:05:03.048Z,14.73
2019-06-08T01:07:39.374Z,14.71
2019-06-08T01:10:11.690Z,14.65
2019-06-08T01:12:44.824Z,14.67
2019-06-08T01:15:16.914Z,14.86
2019-06-08T01:18:02.258Z,14.95
2019-06-08T01:20:38.895Z,14.87
2019-06-08T01:23:09.060Z,14.78
2019-06-08T01:25:41.136Z,14.73
2019-06-08T01:28:11.841Z,14.65
2019-06-08T01:30:42.406Z,14.61
2019-06-08T01:33:13.921Z,14.56
2019-06-08T01:35:45.776Z,14.59
2019-06-08T01:38:18.114Z,14.59
2019-06-08T01:40:49.839Z,14.59
2019-06-08T01:43:21.652Z,14.55
2019-06-08T01:45:53.759Z,14.56
2019-06-08T01:48:26.296Z,14.58
2019-06-08T01:50:55.968Z,14.57
2019-06-08T01:53:26.835Z,14.50
2019-06-08T01:55:58.113Z,14.46
2019-06-08T01:58:27.602Z,14.47
2019-06-08T02:00:59.226Z,14.49
2019-06-08T02:03:32.711Z,14.45
2019-06-08T02:06:04.766Z,14.48
2019-06-08T02:08:39.189Z,14.61
2019-06-08T02:11:10.736Z,14.68
2019-06-08T02:13:42.248Z,14.71
2019-06-08T02:16:12.672Z,14.73
2019-06-08T02:18:50.796Z,14.73
2019-06-08T02:21:20.112Z,14.69
2019-06-08T02:23:51.001Z,14.66
2019-06-08T02:26:22.158Z,14.66
2019-06-08T02:28:55.009Z,14.65
2019-06-08T02:31:27.839Z,14.65
2019-06-08T02:34:01.247Z,14.62
2019-06-08T02:36:37.583Z,14.62
2019-06-08T02:39:10.004Z,14.56
2019-06-08T02:41:40.834Z,14.57
2019-06-08T02:44:12.456Z,14.53
2019-06-08T02:46:42.889Z,14.59
2019-06-08T02:49:22.491Z,14.56
2019-06-08T02:51:54.422Z,14.53
2019-06-08T02:54:27.965Z,14.56
2019-06-08T02:57:00.626Z,14.54
2019-06-08T02:59:32.917Z,14.57
2019-06-08T03:02:04.562Z,14.61
2019-06-08T03:04:39.397Z,14.62
2019-06-08T03:07:11.365Z,14.65
2019-06-08T03:09:42.301Z,14.67
2019-06-08T03:12:11.863Z,14.71
2019-06-08T03:14:42.863Z,14.78
2019-06-08T03:17:13.014Z,14.81
2019-06-08T03:19:42.613Z,14.82
2019-06-08T03:22:12.220Z,14.85
2019-06-08T03:24:44.048Z,14.93
2019-06-08T03:27:13.458Z,14.94
2019-06-08T03:29:43.977Z,15.00
2019-06-08T03:32:14.240Z,15.09
2019-06-08T03:34:55.109Z,15.16
2019-06-08T03:37:18.068Z,15.13
2019-06-08T03:39:48.196Z,15.22
2019-06-08T03:42:19.533Z,15.31
2019-06-08T03:44:49.437Z,15.37
2019-06-08T03:47:19.028Z,15.44
2019-06-08T03:49:56.603Z,15.47
2019-06-08T03:52:20.806Z,15.45
2019-06-08T03:54:51.164Z,15.52
2019-06-08T03:57:22.548Z,15.58
2019-06-08T03:59:53.554Z,15.60
2019-06-08T04:02:23.202Z,15.62
2019-06-08T04:04:53.350Z,15.66
2019-06-08T04:07:24.323Z,15.74
2019-06-08T04:09:54.186Z,15.83
2019-06-08T04:12:24.973Z,15.85
2019-06-08T04:14:55.087Z,15.87
2019-06-08T04:17:24.710Z,15.33
2019-06-08T04:20:09.325Z,15.96
2019-06-08T04:22:26.703Z,16.05
2019-06-08T04:24:57.252Z,16.09
2019-06-08T04:27:27.055Z,16.12
2019-06-08T04:29:56.830Z,16.16
2019-06-08T04:32:26.355Z,16.21
2019-06-08T04:34:58.976Z,16.18
2019-06-08T04:37:29.083Z,16.14
2019-06-08T04:39:59.717Z,16.14
2019-06-08T04:42:30.047Z,16.18
2019-06-08T04:45:00.427Z,16.24
2019-06-08T04:47:31.164Z,16.33
2019-06-08T04:50:20.779Z,16.42
2019-06-08T04:52:36.250Z,16.46
2019-06-08T04:55:06.987Z,16.58
2019-06-08T04:57:36.762Z,16.67
2019-06-08T05:00:12.992Z,16.76
2019-06-08T05:02:44.039Z,16.88
2019-06-08T05:05:13.555Z,16.93
2019-06-08T05:07:44.288Z,17.08
2019-06-08T05:10:15.071Z,17.16
2019-06-08T05:12:47.841Z,17.32
2019-06-08T05:15:26.251Z,17.40
2019-06-08T05:17:58.118Z,17.55
2019-06-08T05:20:38.205Z,17.64
2019-06-08T05:23:07.594Z,17.70
2019-06-08T05:25:43.139Z,17.79
2019-06-08T05:28:17.561Z,17.81
2019-06-08T05:30:49.630Z,17.87
2019-06-08T05:33:21.533Z,17.97
2019-06-08T05:35:56.524Z,18.02
2019-06-08T05:38:26.436Z,18.03
2019-06-08T05:40:57.541Z,18.00
2019-06-08T05:43:29.413Z,18.02
2019-06-08T05:46:01.210Z,18.10
2019-06-08T05:48:31.259Z,18.23
2019-06-08T05:51:04.273Z,18.28
2019-06-08T05:53:39.694Z,18.29
2019-06-08T05:56:11.923Z,18.18
2019-06-08T05:58:43.955Z,18.17
2019-06-08T06:01:16.840Z,18.13
2019-06-08T06:03:48.899Z,18.17
2019-06-08T06:06:23.580Z,18.16
2019-06-08T06:08:55.481Z,18.06
2019-06-08T06:11:26.728Z,18.03
2019-06-08T06:13:57.007Z,18.02
2019-06-08T06:16:27.504Z,18.07
2019-06-08T06:18:58.751Z,18.09
2019-06-08T06:21:29.605Z,18.13
2019-06-08T06:24:02.982Z,18.06
2019-06-08T06:26:38.175Z,18.08
2019-06-08T06:29:08.600Z,18.17
2019-06-08T06:31:39.129Z,18.18
2019-06-08T06:34:10.409Z,18.27
2019-06-08T06:36:41.701Z,18.37
2019-06-08T06:39:13.230Z,18.43
2019-06-08T06:41:44.062Z,18.46
2019-06-08T06:44:14.236Z,18.48
2019-06-08T06:46:44.180Z,18.45
2019-06-08T06:49:14.799Z,18.40
2019-06-08T06:51:44.798Z,18.44
2019-06-08T06:54:14.592Z,18.48
2019-06-08T06:56:45.298Z,18.42
2019-06-08T06:59:15.948Z,18.40
2019-06-08T07:01:47.466Z,18.37
2019-06-08T07:04:17.898Z,18.32
2019-06-08T07:06:48.127Z,18.23
2019-06-08T07:09:19.524Z,18.07
2019-06-08T07:11:50.958Z,18.02
2019-06-08T07:14:27.295Z,18.01
2019-06-08T07:16:56.717Z,17.94
2019-06-08T07:19:26.603Z,17.90
2019-06-08T07:21:58.593Z,17.84
2019-06-08T07:24:28.946Z,17.76
2019-06-08T07:27:02.831Z,17.62
2019-06-08T07:29:33.149Z,17.51
2019-06-08T07:32:05.466Z,17.37
2019-06-08T07:34:40.984Z,17.23
2019-06-08T07:37:08.935Z,17.19
2019-06-08T07:39:40.979Z,17.07
2019-06-08T07:42:12.317Z,17.00
2019-06-08T07:44:43.568Z,16.99
2019-06-08T07:47:14.401Z,17.06
2019-06-08T07:49:51.125Z,17.07
2019-06-08T07:52:22.145Z,16.99
2019-06-08T07:54:54.684Z,16.93
2019-06-08T07:57:26.165Z,16.90
2019-06-08T07:59:56.337Z,16.94
2019-06-08T08:02:28.553Z,16.93
2019-06-08T08:04:58.856Z,16.97
2019-06-08T08:07:29.874Z,17.01
2019-06-08T08:10:00.408Z,17.00
2019-06-08T08:12:31.263Z,16.99
2019-06-08T08:15:00.835Z,17.03
2019-06-08T08:17:34.318Z,17.02
2019-06-08T08:20:03.389Z,16.95
2019-06-08T08:22:34.171Z,16.87
2019-06-08T08:25:05.086Z,16.97
2019-06-08T08:27:37.390Z,17.01
2019-06-08T08:30:08.447Z,17.06
2019-06-08T08:32:38.587Z,17.20
2019-06-08T08:35:09.405Z,17.22
2019-06-08T08:37:40.015Z,17.17
2019-06-08T08:40:09.894Z,17.15
2019-06-08T08:42:48.269Z,17.12
2019-06-08T08:45:20.088Z,17.11
2019-06-08T08:48:14.441Z,17.19
2019-06-08T08:50:29.207Z,17.11
2019-06-08T08:53:08.351Z,17.11
2019-06-08T08:55:40.140Z,17.09
2019-06-08T08:58:12.835Z,17.08
2019-06-08T09:00:44.363Z,17.12
2019-06-08T09:03:33.727Z,17.13
2019-06-08T09:06:04.687Z,17.10
2019-06-08T09:08:41.261Z,17.11
2019-06-08T09:11:12.976Z,17.16
2019-06-08T09:13:48.906Z,17.19
2019-06-08T09:16:31.054Z,17.16
2019-06-08T09:19:04.461Z,17.16
2019-06-08T09:21:38.506Z,17.11
2019-06-08T09:24:10.762Z,17.08
2019-06-08T09:27:03.996Z,17.06
2019-06-08T09:30:00.709Z,17.05
2019-06-08T09:32:34.182Z,17.05
2019-06-08T09:35:05.287Z,17.09
2019-06-08T09:37:37.572Z,17.15
2019-06-08T09:40:10.460Z,17.19
2019-06-08T09:42:44.264Z,17.28
2019-06-08T09:45:32.556Z,17.38
2019-06-08T09:48:10.515Z,17.42
2019-06-08T09:50:45.312Z,17.38
2019-06-08T09:53:28.482Z,17.39
2019-06-08T09:55:53.293Z,17.38
2019-06-08T09:58:31.651Z,17.34
2019-06-08T10:01:13.388Z,17.33
2019-06-08T10:03:48.246Z,17.31
2019-06-08T10:06:18.402Z,17.34
2019-06-08T10:08:50.317Z,17.39
2019-06-08T10:11:21.520Z,17.38
2019-06-08T10:13:54.502Z,17.46
2019-06-08T10:16:38.149Z,17.51
2019-06-08T10:19:12.643Z,17.51
2019-06-08T10:21:45.135Z,17.50
2019-06-08T10:24:17.086Z,17.46
2019-06-08T10:26:49.921Z,17.51
2019-06-08T10:29:26.276Z,17.53
2019-06-08T10:32:03.783Z,17.52
2019-06-08T10:34:38.633Z,17.50
2019-06-08T10:37:12.985Z,17.55
2019-06-08T10:39:49.365Z,17.59
2019-06-08T10:42:25.412Z,17.68
2019-06-08T10:44:59.334Z,17.57
2019-06-08T10:47:29.757Z,17.64
2019-06-08T10:50:09.146Z,17.92
2019-06-08T10:52:38.959Z,18.18
2019-06-08T10:55:10.352Z,18.16
2019-06-08T10:57:43.032Z,18.20
2019-06-08T11:00:22.658Z,18.26
2019-06-08T11:02:50.008Z,18.45
2019-06-08T11:05:21.868Z,18.56
2019-06-08T11:07:53.213Z,18.58
2019-06-08T11:10:25.483Z,18.72
2019-06-08T11:13:04.411Z,18.63
2019-06-08T11:18:24.265Z,18.48
2019-06-08T11:21:06.334Z,18.60
2019-06-08T11:23:41.599Z,18.77
2019-06-08T11:26:20.960Z,18.74
2019-06-08T11:28:53.521Z,18.63
2019-06-08T11:31:29.794Z,18.57
2019-06-08T11:34:02.659Z,18.55
2019-06-08T11:36:36.093Z,18.45
2019-06-08T11:39:11.317Z,18.42
2019-06-08T11:41:42.390Z,18.55
2019-06-08T11:44:14.824Z,18.65
2019-06-08T11:46:51.130Z,18.74
2019-06-08T11:49:23.526Z,18.89
2019-06-08T11:51:58.306Z,18.95
2019-06-08T11:54:49.530Z,19.13
2019-06-08T11:57:28.330Z,19.27
2019-06-08T12:00:10.763Z,19.40
2019-06-08T12:02:48.602Z,19.51
2019-06-08T12:05:18.452Z,19.64
2019-06-08T12:07:51.263Z,19.63
2019-06-08T12:10:21.976Z,19.62
2019-06-08T12:12:52.037Z,19.72
2019-06-08T12:15:33.363Z,19.70
2019-06-08T12:18:08.336Z,19.73
2019-06-08T12:20:42.398Z,19.74
2019-06-08T12:23:15.914Z,19.74
2019-06-08T12:25:50.087Z,19.69
2019-06-08T12:28:27.929Z,19.70
2019-06-08T12:31:00.993Z,19.64
2019-06-08T12:33:39.196Z,19.66
2019-06-08T12:36:20.985Z,19.69
2019-06-08T12:38:59.086Z,19.62
2019-06-08T12:41:33.997Z,19.49
2019-06-08T12:44:14.677Z,19.73
2019-06-08T12:46:44.029Z,19.94
2019-06-08T12:49:25.326Z,20.13
2019-06-08T12:51:59.877Z,20.29
2019-06-08T12:54:34.841Z,20.33
2019-06-08T12:57:13.419Z,20.35
2019-06-08T12:59:45.524Z,20.30
2019-06-08T13:02:22.037Z,20.35
2019-06-08T13:05:04.362Z,20.35
2019-06-08T13:07:38.535Z,20.42
2019-06-08T13:10:13.338Z,20.41
2019-06-08T13:12:43.528Z,20.19
2019-06-08T13:15:21.723Z,20.21
2019-06-08T13:17:55.056Z,20.38
2019-06-08T13:20:29.516Z,20.52
2019-06-08T13:23:04.470Z,20.24
2019-06-08T13:25:40.987Z,20.14
2019-06-08T13:28:15.413Z,20.01
2019-06-08T13:30:44.468Z,19.89
2019-06-08T13:33:16.753Z,20.05
2019-06-08T13:35:51.075Z,20.20
2019-06-08T13:38:23.156Z,20.32
2019-06-08T13:40:54.326Z,20.38
2019-06-08T13:43:28.278Z,20.34
2019-06-08T13:45:58.481Z,20.39
2019-06-08T13:48:28.478Z,20.32
2019-06-08T13:51:01.898Z,20.56
2019-06-08T13:53:38.159Z,20.36
2019-06-08T13:56:10.607Z,20.42
2019-06-08T13:58:41.803Z,20.68
2019-06-08T14:01:15.459Z,20.64
2019-06-08T14:03:51.720Z,20.47
2019-06-08T14:06:37.000Z,20.58
2019-06-08T14:09:11.689Z,20.43
2019-06-08T14:11:42.967Z,20.54
2019-06-08T14:14:14.930Z,20.47
2019-06-08T14:16:50.261Z,20.30
2019-06-08T14:19:21.716Z,20.18
2019-06-08T14:21:59.812Z,20.32
2019-06-08T14:24:39.482Z,20.53
2019-06-08T14:27:10.691Z,20.68
2019-06-08T14:29:44.047Z,20.64
2019-06-08T14:32:14.857Z,20.59
2019-06-08T14:34:50.314Z,20.66
2019-06-08T14:37:24.830Z,20.43
2019-06-08T14:39:58.876Z,20.35
2019-06-08T14:42:31.814Z,20.18
2019-06-08T14:45:02.767Z,20.22
2019-06-08T14:47:39.783Z,20.07
2019-06-08T14:50:13.342Z,20.10
2019-06-08T14:52:47.930Z,20.14
2019-06-08T14:55:21.751Z,19.94
2019-06-08T14:57:52.342Z,19.97
2019-06-08T15:00:25.662Z,19.95
2019-06-08T15:03:03.594Z,20.01
2019-06-08T15:05:37.687Z,20.28
2019-06-08T15:08:31.159Z,20.27
2019-06-08T15:11:08.062Z,20.20
2019-06-08T15:13:40.450Z,20.05
2019-06-08T15:16:10.868Z,19.82
2019-06-08T15:18:42.579Z,19.98
2019-06-08T15:21:20.453Z,19.93
2019-06-08T15:23:47.789Z,19.89
2019-06-08T15:26:28.282Z,19.99
2019-06-08T15:28:58.590Z,20.01
2019-06-08T15:31:32.763Z,19.93
2019-06-08T15:34:10.489Z,19.82
2019-06-08T15:36:40.536Z,19.62
2019-06-08T15:39:17.696Z,19.53
2019-06-08T15:41:48.812Z,19.56
2019-06-08T15:44:22.815Z,19.62
2019-06-08T15:46:54.618Z,19.53
2019-06-08T15:49:30.660Z,19.60
2019-06-08T15:52:02.817Z,19.45
2019-06-08T15:54:36.233Z,19.42
2019-06-08T15:57:07.266Z,19.31
2019-06-08T15:59:41.842Z,19.29
2019-06-08T16:02:11.609Z,19.08
2019-06-08T16:05:07.948Z,19.05
2019-06-08T16:07:43.559Z,19.08
2019-06-08T16:10:14.358Z,19.03
2019-06-08T16:12:45.505Z,19.00
2019-06-08T16:15:19.148Z,19.03
2019-06-08T16:17:50.055Z,18.97
2019-06-08T16:20:20.388Z,18.85
2019-06-08T16:22:51.479Z,18.84
2019-06-08T16:25:23.176Z,19.00
2019-06-08T16:27:53.935Z,19.00
2019-06-08T16:30:24.145Z,18.99
2019-06-08T16:32:54.883Z,18.90
2019-06-08T16:35:28.120Z,18.67
2019-06-08T16:37:58.701Z,18.58
2019-06-08T16:40:32.006Z,18.42
2019-06-08T16:43:03.969Z,18.44
2019-06-08T16:45:35.218Z,18.42
2019-06-08T16:48:05.276Z,18.24
2019-06-08T16:50:38.527Z,18.15
2019-06-08T16:53:10.495Z,18.31
2019-06-08T16:55:45.110Z,18.35
2019-06-08T16:58:16.782Z,18.36
2019-06-08T17:00:47.660Z,18.50
2019-06-08T17:03:18.817Z,18.52
2019-06-08T17:05:51.135Z,18.33
2019-06-08T17:08:23.806Z,18.28
2019-06-08T17:10:55.167Z,18.35
2019-06-08T17:13:30.056Z,18.28
2019-06-08T17:16:11.928Z,18.32
2019-06-08T17:18:49.500Z,18.38
2019-06-08T17:21:27.852Z,18.22
2019-06-08T17:23:58.728Z,18.25
2019-06-08T17:26:30.490Z,18.33
2019-06-08T17:29:06.671Z,18.26
2019-06-08T17:31:37.222Z,18.33
2019-06-08T17:34:22.068Z,18.33
2019-06-08T17:36:54.312Z,18.24
2019-06-08T17:39:49.737Z,18.08
2019-06-08T17:42:24.351Z,17.80
2019-06-08T17:45:01.205Z,17.70
2019-06-08T17:47:36.325Z,17.57
2019-06-08T17:50:27.473Z,17.52
2019-06-08T17:52:59.852Z,17.33
2019-06-08T17:55:29.697Z,17.20
2019-06-08T17:57:59.774Z,17.25
2019-06-08T18:00:30.612Z,17.19
2019-06-08T18:03:01.717Z,17.14
2019-06-08T18:05:31.856Z,16.97
2019-06-08T18:08:10.146Z,16.97
2019-06-08T18:10:42.902Z,17.09
2019-06-08T18:13:19.183Z,17.04
2019-06-08T18:15:59.192Z,17.12
2019-06-08T18:18:29.539Z,17.02
2019-06-08T18:21:08.106Z,17.05
2019-06-08T18:23:49.156Z,16.87
2019-06-08T18:26:22.454Z,16.31
2019-06-08T18:28:55.393Z,16.93
2019-06-08T18:31:27.621Z,16.95
2019-06-08T18:34:08.925Z,16.89
2019-06-08T18:36:45.079Z,16.72
2019-06-08T18:39:18.340Z,16.74
2019-06-08T18:42:01.907Z,16.67
2019-06-08T18:44:34.968Z,16.61
2019-06-08T18:47:21.067Z,16.58
2019-06-08T18:50:02.464Z,16.50
2019-06-08T18:52:49.696Z,16.47
2019-06-08T18:55:23.989Z,16.45
2019-06-08T18:57:57.274Z,16.52
2019-06-08T19:00:43.234Z,16.53
2019-06-08T19:03:13.868Z,16.49
2019-06-08T19:05:47.167Z,16.45
2019-06-08T19:08:18.884Z,16.47
2019-06-08T19:10:50.494Z,16.44
2019-06-08T19:13:21.601Z,16.47
2019-06-08T19:16:02.102Z,16.48
2019-06-08T19:18:38.373Z,16.46
2019-06-08T19:21:34.542Z,16.46
2019-06-08T19:24:18.049Z,16.49
2019-06-08T19:29:47.527Z,16.39
2019-06-08T19:32:20.306Z,16.45
2019-06-08T19:34:54.002Z,16.41
2019-06-08T19:37:33.218Z,16.38
2019-06-08T19:40:07.467Z,16.37
2019-06-08T19:42:51.114Z,16.36
2019-06-08T19:45:18.577Z,16.41
2019-06-08T19:47:53.635Z,16.38
2019-06-08T19:50:24.760Z,16.39
2019-06-08T19:52:57.986Z,16.42
2019-06-08T19:55:28.881Z,16.45
2019-06-08T19:58:02.476Z,16.51
2019-06-08T20:00:34.739Z,15.90
2019-06-08T20:03:07.692Z,16.43
2019-06-08T20:05:45.287Z,16.45
2019-06-08T20:08:19.940Z,16.51
2019-06-08T20:10:57.470Z,16.51
2019-06-08T20:13:28.879Z,16.45
2019-06-08T20:16:02.269Z,16.47
2019-06-08T20:18:53.043Z,16.46
2019-06-08T20:21:23.795Z,16.37
2019-06-08T20:23:58.339Z,16.34
2019-06-08T20:26:44.230Z,16.33
2019-06-08T20:29:19.832Z,16.36
2019-06-08T20:31:51.556Z,16.43
2019-06-08T20:34:27.027Z,16.50
2019-06-08T20:37:02.076Z,16.52
2019-06-08T20:39:38.461Z,16.55
2019-06-08T20:42:13.160Z,16.54
2019-06-08T20:44:49.068Z,16.48
2019-06-08T20:47:20.742Z,16.50
2019-06-08T20:49:58.294Z,16.44
2019-06-08T20:52:29.347Z,16.47
2019-06-08T20:55:01.883Z,16.48
2019-06-08T20:57:34.967Z,16.44
2019-06-08T21:00:11.631Z,16.47
2019-06-08T21:02:41.739Z,16.48
2019-06-08T21:05:18.260Z,16.40
2019-06-08T21:07:54.134Z,16.33
2019-06-08T21:10:28.173Z,16.19
2019-06-08T21:13:03.961Z,16.12
2019-06-08T21:15:38.248Z,15.93
2019-06-08T21:18:14.127Z,15.93
2019-06-08T21:20:47.610Z,15.88
2019-06-08T21:23:20.904Z,15.79
2019-06-08T21:25:53.667Z,15.76
2019-06-08T21:28:24.163Z,15.74
2019-06-08T21:30:58.230Z,15.69
2019-06-08T21:33:32.404Z,15.62
2019-06-08T21:36:11.003Z,15.59
2019-06-08T21:38:47.510Z,15.60
2019-06-08T21:41:18.823Z,15.66
2019-06-08T21:43:54.207Z,15.75
2019-06-08T21:46:23.321Z,15.75
2019-06-08T21:48:58.428Z,15.72
2019-06-08T21:51:31.141Z,15.76
2019-06-08T21:54:02.212Z,15.82
2019-06-08T21:56:32.923Z,15.81
2019-06-08T21:59:04.659Z,15.69
2019-06-08T22:01:37.422Z,15.67
2019-06-08T22:04:10.208Z,15.66
2019-06-08T22:06:43.271Z,15.62
2019-06-08T22:09:14.990Z,15.60
2019-06-08T22:12:00.773Z,15.62
2019-06-08T22:14:52.803Z,15.68
2019-06-08T22:17:27.800Z,15.75
2019-06-08T22:20:00.852Z,15.77
2019-06-08T22:22:31.422Z,15.80
2019-06-08T22:25:08.128Z,15.77
2019-06-08T22:27:40.805Z,15.82
2019-06-08T22:30:22.882Z,15.78
2019-06-08T22:32:43.582Z,15.78
2019-06-08T22:35:16.001Z,15.82
2019-06-08T22:37:53.272Z,15.80
2019-06-08T22:40:23.417Z,15.78
2019-06-08T22:42:54.605Z,15.79
2019-06-08T22:45:34.643Z,15.72
2019-06-08T22:48:13.442Z,15.64
2019-06-08T22:50:47.674Z,15.64
2019-06-08T22:53:21.344Z,15.57
2019-06-08T22:55:59.640Z,15.55
2019-06-08T22:58:40.600Z,15.50
2019-06-08T23:01:13.724Z,15.39
2019-06-08T23:03:43.837Z,15.30
2019-06-08T23:06:27.950Z,15.26
2019-06-08T23:09:00.942Z,15.29
2019-06-08T23:11:31.123Z,15.32
2019-06-08T23:14:04.088Z,15.36
2019-06-08T23:16:34.751Z,15.32
2019-06-08T23:19:07.839Z,15.29
2019-06-08T23:21:38.369Z,15.32
2019-06-08T23:24:13.226Z,15.35
2019-06-08T23:26:48.002Z,15.34
2019-06-08T23:29:18.197Z,15.33
2019-06-08T23:31:50.487Z,15.34
2019-06-08T23:37:24.511Z,15.32
2019-06-08T23:39:57.939Z,15.37
2019-06-08T23:42:31.810Z,15.35
2019-06-08T23:45:03.784Z,15.35
2019-06-08T23:47:34.933Z,15.37
2019-06-08T23:50:09.879Z,15.37
2019-06-08T23:52:47.545Z,15.33
2019-06-08T23:55:18.174Z,15.32
2019-06-08T23:57:51.559Z,15.36
